sensor_id;sensor_type;location;lat;lon;timestamp;temperature;humidity
14093;DHT22;7123;49.468;10.992;2023-08-17T00:01:35;28.00;99.90
14093;DHT22;7123;49.468;10.992;2023-08-17T00:04:02;27.90;99.90
14093;DHT22;7123;49.468;10.992;2023-08-17T00:06:29;28.00;99.90
14093;DHT22;7123;49.468;10.992;2023-08-17T00:08:56;27.90;99.90
14093;DHT22;7123;49.468;10.992;2023-08-17T00:11:22;27.90;99.90
14093;DHT22;7123;49.468;10.992;2023-08-17T00:13:49;27.90;99.90
14093;DHT22;7123;49.468;10.992;2023-08-17T00:16:16;27.90;99.90
14093;DHT22;7123;49.468;10.992;2023-08-17T00:18:43;27.90;99.90
14093;DHT22;7123;49.468;10.992;2023-08-17T00:21:10;27.90;99.90
14093;DHT22;7123;49.468;10.992;2023-08-17T00:23:37;27.90;99.90
14093;DHT22;7123;49.468;10.992;2023-08-17T00:26:04;27.90;99.90
14093;DHT22;7123;49.468;10.992;2023-08-17T00:28:33;27.90;99.90
14093;DHT22;7123;49.468;10.992;2023-08-17T00:31:00;27.80;99.90
14093;DHT22;7123;49.468;10.992;2023-08-17T00:33:27;27.80;99.90
14093;DHT22;7123;49.468;10.992;2023-08-17T00:35:54;27.80;99.90
14093;DHT22;7123;49.468;10.992;2023-08-17T00:38:21;27.80;99.90
14093;DHT22;7123;49.468;10.992;2023-08-17T00:40:48;27.50;99.90
14093;DHT22;7123;49.468;10.992;2023-08-17T00:43:14;27.30;99.90
14093;DHT22;7123;49.468;10.992;2023-08-17T00:45:41;27.10;99.90
14093;DHT22;7123;49.468;10.992;2023-08-17T00:48:09;26.80;99.90
14093;DHT22;7123;49.468;10.992;2023-08-17T00:50:37;26.50;99.90
14093;DHT22;7123;49.468;10.992;2023-08-17T00:53:06;25.90;99.90
14093;DHT22;7123;49.468;10.992;2023-08-17T00:55:34;25.40;99.90
14093;DHT22;7123;49.468;10.992;2023-08-17T00:58:01;25.20;99.90
14093;DHT22;7123;49.468;10.992;2023-08-17T01:00:28;25.20;99.90
14093;DHT22;7123;49.468;10.992;2023-08-17T01:02:55;25.30;99.90
14093;DHT22;7123;49.468;10.992;2023-08-17T01:05:23;25.30;99.90
14093;DHT22;7123;49.468;10.992;2023-08-17T01:07:50;25.30;99.90
14093;DHT22;7123;49.468;10.992;2023-08-17T01:10:17;25.20;99.90
14093;DHT22;7123;49.468;10.992;2023-08-17T01:12:52;25.20;99.90
14093;DHT22;7123;49.468;10.992;2023-08-17T01:15:28;25.40;99.90
14093;DHT22;7123;49.468;10.992;2023-08-17T01:18:11;25.60;99.90
14093;DHT22;7123;49.468;10.992;2023-08-17T01:20:43;25.90;99.90
14093;DHT22;7123;49.468;10.992;2023-08-17T01:23:09;26.10;99.90
14093;DHT22;7123;49.468;10.992;2023-08-17T01:25:36;26.30;99.90
14093;DHT22;7123;49.468;10.992;2023-08-17T01:28:04;26.40;99.90
14093;DHT22;7123;49.468;10.992;2023-08-17T01:33:33;26.50;99.90
14093;DHT22;7123;49.468;10.992;2023-08-17T01:36:13;26.60;99.90
14093;DHT22;7123;49.468;10.992;2023-08-17T01:38:44;26.70;99.90
14093;DHT22;7123;49.468;10.992;2023-08-17T01:41:13;26.70;99.90
14093;DHT22;7123;49.468;10.992;2023-08-17T01:43:42;26.80;99.90
14093;DHT22;7123;49.468;10.992;2023-08-17T01:46:17;26.80;99.90
14093;DHT22;7123;49.468;10.992;2023-08-17T01:48:45;26.70;99.90
14093;DHT22;7123;49.468;10.992;2023-08-17T01:51:18;26.70;99.90
14093;DHT22;7123;49.468;10.992;2023-08-17T01:53:48;26.50;99.90
14093;DHT22;7123;49.468;10.992;2023-08-17T01:56:15;26.50;99.90
14093;DHT22;7123;49.468;10.992;2023-08-17T01:58:42;26.40;99.90
14093;DHT22;7123;49.468;10.992;2023-08-17T02:01:09;26.50;99.90
14093;DHT22;7123;49.468;10.992;2023-08-17T02:03:36;26.50;99.90
14093;DHT22;7123;49.468;10.992;2023-08-17T02:06:03;26.50;99.90
14093;DHT22;7123;49.468;10.992;2023-08-17T02:08:30;26.60;99.90
14093;DHT22;7123;49.468;10.992;2023-08-17T02:10:56;26.60;99.90
14093;DHT22;7123;49.468;10.992;2023-08-17T02:13:23;26.60;99.90
14093;DHT22;7123;49.468;10.992;2023-08-17T02:15:50;26.60;99.90
14093;DHT22;7123;49.468;10.992;2023-08-17T02:18:17;26.60;99.90
14093;DHT22;7123;49.468;10.992;2023-08-17T02:20:43;26.70;99.90
14093;DHT22;7123;49.468;10.992;2023-08-17T02:23:10;26.70;99.90
14093;DHT22;7123;49.468;10.992;2023-08-17T02:25:40;26.70;99.90
14093;DHT22;7123;49.468;10.992;2023-08-17T02:28:07;26.60;99.90
14093;DHT22;7123;49.468;10.992;2023-08-17T02:30:34;26.60;99.90
14093;DHT22;7123;49.468;10.992;2023-08-17T02:33:00;26.70;99.90
14093;DHT22;7123;49.468;10.992;2023-08-17T02:35:27;26.70;99.90
14093;DHT22;7123;49.468;10.992;2023-08-17T02:37:54;26.70;99.90
14093;DHT22;7123;49.468;10.992;2023-08-17T02:40:21;26.60;99.90
14093;DHT22;7123;49.468;10.992;2023-08-17T02:42:49;26.60;99.90
14093;DHT22;7123;49.468;10.992;2023-08-17T02:45:16;26.60;99.90
14093;DHT22;7123;49.468;10.992;2023-08-17T02:47:43;26.50;99.90
14093;DHT22;7123;49.468;10.992;2023-08-17T02:50:10;26.60;99.90
14093;DHT22;7123;49.468;10.992;2023-08-17T02:52:37;26.60;99.90
14093;DHT22;7123;49.468;10.992;2023-08-17T02:55:04;26.60;99.90
14093;DHT22;7123;49.468;10.992;2023-08-17T02:57:30;26.60;99.90
14093;DHT22;7123;49.468;10.992;2023-08-17T02:59:57;26.50;99.90
14093;DHT22;7123;49.468;10.992;2023-08-17T03:02:24;26.50;99.90
14093;DHT22;7123;49.468;10.992;2023-08-17T03:04:51;26.50;99.90
14093;DHT22;7123;49.468;10.992;2023-08-17T03:07:17;26.50;99.90
14093;DHT22;7123;49.468;10.992;2023-08-17T03:09:44;26.50;99.90
14093;DHT22;7123;49.468;10.992;2023-08-17T03:12:11;26.50;99.90
14093;DHT22;7123;49.468;10.992;2023-08-17T03:14:37;26.50;99.90
14093;DHT22;7123;49.468;10.992;2023-08-17T03:17:04;26.60;99.90
14093;DHT22;7123;49.468;10.992;2023-08-17T03:19:31;26.60;99.90
14093;DHT22;7123;49.468;10.992;2023-08-17T03:21:57;26.60;99.90
14093;DHT22;7123;49.468;10.992;2023-08-17T03:24:25;26.60;99.90
14093;DHT22;7123;49.468;10.992;2023-08-17T03:26:52;26.60;99.90
14093;DHT22;7123;49.468;10.992;2023-08-17T03:29:19;26.60;99.90
14093;DHT22;7123;49.468;10.992;2023-08-17T03:31:46;26.50;99.90
14093;DHT22;7123;49.468;10.992;2023-08-17T03:34:13;26.50;99.90
14093;DHT22;7123;49.468;10.992;2023-08-17T03:36:39;26.50;99.90
14093;DHT22;7123;49.468;10.992;2023-08-17T03:39:06;26.50;99.90
14093;DHT22;7123;49.468;10.992;2023-08-17T03:41:33;26.60;99.90
14093;DHT22;7123;49.468;10.992;2023-08-17T03:44:00;26.60;99.90
14093;DHT22;7123;49.468;10.992;2023-08-17T03:46:26;26.60;99.90
14093;DHT22;7123;49.468;10.992;2023-08-17T03:48:53;26.60;99.90
14093;DHT22;7123;49.468;10.992;2023-08-17T03:51:20;26.60;99.90
14093;DHT22;7123;49.468;10.992;2023-08-17T03:53:47;26.60;99.90
14093;DHT22;7123;49.468;10.992;2023-08-17T03:56:13;26.50;99.90
14093;DHT22;7123;49.468;10.992;2023-08-17T03:58:40;26.50;99.90
14093;DHT22;7123;49.468;10.992;2023-08-17T04:01:09;26.50;99.90
14093;DHT22;7123;49.468;10.992;2023-08-17T04:03:35;26.50;99.90
14093;DHT22;7123;49.468;10.992;2023-08-17T04:06:06;26.50;99.90
14093;DHT22;7123;49.468;10.992;2023-08-17T04:08:33;26.50;99.90
14093;DHT22;7123;49.468;10.992;2023-08-17T04:11:00;26.50;99.90
14093;DHT22;7123;49.468;10.992;2023-08-17T04:13:27;26.50;99.90
14093;DHT22;7123;49.468;10.992;2023-08-17T04:15:54;26.50;99.90
14093;DHT22;7123;49.468;10.992;2023-08-17T04:18:20;26.50;99.90
14093;DHT22;7123;49.468;10.992;2023-08-17T04:20:47;26.50;99.90
14093;DHT22;7123;49.468;10.992;2023-08-17T04:23:14;26.50;99.90
14093;DHT22;7123;49.468;10.992;2023-08-17T04:25:41;26.50;99.90
14093;DHT22;7123;49.468;10.992;2023-08-17T04:28:08;26.50;99.90
14093;DHT22;7123;49.468;10.992;2023-08-17T04:30:35;26.50;99.90
14093;DHT22;7123;49.468;10.992;2023-08-17T04:33:01;26.50;99.90
14093;DHT22;7123;49.468;10.992;2023-08-17T04:35:28;26.50;99.90
14093;DHT22;7123;49.468;10.992;2023-08-17T04:37:55;26.40;99.90
14093;DHT22;7123;49.468;10.992;2023-08-17T04:40:22;26.40;99.90
14093;DHT22;7123;49.468;10.992;2023-08-17T04:42:49;26.30;99.90
14093;DHT22;7123;49.468;10.992;2023-08-17T04:45:16;26.30;99.90
14093;DHT22;7123;49.468;10.992;2023-08-17T04:47:42;26.30;99.90
14093;DHT22;7123;49.468;10.992;2023-08-17T04:50:09;26.30;99.90
14093;DHT22;7123;49.468;10.992;2023-08-17T04:52:36;26.30;99.90
14093;DHT22;7123;49.468;10.992;2023-08-17T04:55:03;26.30;99.90
14093;DHT22;7123;49.468;10.992;2023-08-17T04:57:30;26.30;99.90
14093;DHT22;7123;49.468;10.992;2023-08-17T04:59:56;26.20;99.90
14093;DHT22;7123;49.468;10.992;2023-08-17T05:02:23;26.20;99.90
14093;DHT22;7123;49.468;10.992;2023-08-17T05:04:50;26.20;99.90
14093;DHT22;7123;49.468;10.992;2023-08-17T05:07:17;26.20;99.90
14093;DHT22;7123;49.468;10.992;2023-08-17T05:09:44;26.20;99.90
14093;DHT22;7123;49.468;10.992;2023-08-17T05:12:10;26.20;99.90
14093;DHT22;7123;49.468;10.992;2023-08-17T05:14:37;26.20;99.90
14093;DHT22;7123;49.468;10.992;2023-08-17T05:17:04;26.20;99.90
14093;DHT22;7123;49.468;10.992;2023-08-17T05:19:30;26.30;99.90
14093;DHT22;7123;49.468;10.992;2023-08-17T05:21:58;26.30;99.90
14093;DHT22;7123;49.468;10.992;2023-08-17T05:24:24;26.30;99.90
14093;DHT22;7123;49.468;10.992;2023-08-17T05:26:51;26.30;99.90
14093;DHT22;7123;49.468;10.992;2023-08-17T05:29:18;26.40;99.90
14093;DHT22;7123;49.468;10.992;2023-08-17T05:31:44;26.40;99.90
14093;DHT22;7123;49.468;10.992;2023-08-17T05:34:11;26.40;99.90
14093;DHT22;7123;49.468;10.992;2023-08-17T05:36:38;26.40;99.90
14093;DHT22;7123;49.468;10.992;2023-08-17T05:39:05;26.40;99.90
14093;DHT22;7123;49.468;10.992;2023-08-17T05:41:32;26.50;99.90
14093;DHT22;7123;49.468;10.992;2023-08-17T05:43:59;26.50;99.90
14093;DHT22;7123;49.468;10.992;2023-08-17T05:46:25;26.50;99.90
14093;DHT22;7123;49.468;10.992;2023-08-17T05:48:52;26.50;99.90
14093;DHT22;7123;49.468;10.992;2023-08-17T05:51:19;26.60;99.90
14093;DHT22;7123;49.468;10.992;2023-08-17T05:53:46;26.60;99.90
14093;DHT22;7123;49.468;10.992;2023-08-17T05:56:12;26.60;99.90
14093;DHT22;7123;49.468;10.992;2023-08-17T05:58:39;26.60;99.90
14093;DHT22;7123;49.468;10.992;2023-08-17T06:01:08;26.60;99.90
14093;DHT22;7123;49.468;10.992;2023-08-17T06:03:36;26.60;99.90
14093;DHT22;7123;49.468;10.992;2023-08-17T06:06:04;26.60;99.90
14093;DHT22;7123;49.468;10.992;2023-08-17T06:08:32;26.60;99.90
14093;DHT22;7123;49.468;10.992;2023-08-17T06:10:59;26.60;99.90
14093;DHT22;7123;49.468;10.992;2023-08-17T06:13:26;26.60;99.90
14093;DHT22;7123;49.468;10.992;2023-08-17T06:15:52;26.60;99.90
14093;DHT22;7123;49.468;10.992;2023-08-17T06:18:21;26.70;99.90
14093;DHT22;7123;49.468;10.992;2023-08-17T06:20:48;26.60;99.90
14093;DHT22;7123;49.468;10.992;2023-08-17T06:23:19;26.70;99.90
14093;DHT22;7123;49.468;10.992;2023-08-17T06:25:46;26.70;99.90
14093;DHT22;7123;49.468;10.992;2023-08-17T06:28:13;26.70;99.90
14093;DHT22;7123;49.468;10.992;2023-08-17T06:30:40;26.70;99.90
14093;DHT22;7123;49.468;10.992;2023-08-17T06:33:07;26.70;99.90
14093;DHT22;7123;49.468;10.992;2023-08-17T06:35:33;26.70;99.90
14093;DHT22;7123;49.468;10.992;2023-08-17T06:38:00;26.70;99.90
14093;DHT22;7123;49.468;10.992;2023-08-17T06:40:27;26.70;99.90
14093;DHT22;7123;49.468;10.992;2023-08-17T06:42:54;26.70;99.90
14093;DHT22;7123;49.468;10.992;2023-08-17T06:45:21;26.70;99.90
14093;DHT22;7123;49.468;10.992;2023-08-17T06:47:49;26.70;99.90
14093;DHT22;7123;49.468;10.992;2023-08-17T06:50:16;26.80;99.90
14093;DHT22;7123;49.468;10.992;2023-08-17T06:52:43;26.80;99.90
14093;DHT22;7123;49.468;10.992;2023-08-17T06:55:10;26.90;99.90
14093;DHT22;7123;49.468;10.992;2023-08-17T06:57:37;26.90;99.90
14093;DHT22;7123;49.468;10.992;2023-08-17T07:00:04;26.90;99.90
14093;DHT22;7123;49.468;10.992;2023-08-17T07:02:34;26.90;99.90
14093;DHT22;7123;49.468;10.992;2023-08-17T07:05:17;27.00;99.90
14093;DHT22;7123;49.468;10.992;2023-08-17T07:07:45;27.00;99.90
14093;DHT22;7123;49.468;10.992;2023-08-17T07:10:11;27.00;99.90
14093;DHT22;7123;49.468;10.992;2023-08-17T07:12:38;27.00;99.90
14093;DHT22;7123;49.468;10.992;2023-08-17T07:15:07;27.00;99.90
14093;DHT22;7123;49.468;10.992;2023-08-17T07:17:34;27.10;99.90
14093;DHT22;7123;49.468;10.992;2023-08-17T07:20:04;27.20;99.90
14093;DHT22;7123;49.468;10.992;2023-08-17T07:22:34;27.20;99.90
14093;DHT22;7123;49.468;10.992;2023-08-17T07:25:01;27.20;99.90
14093;DHT22;7123;49.468;10.992;2023-08-17T07:27:28;27.30;99.90
14093;DHT22;7123;49.468;10.992;2023-08-17T07:29:55;27.30;99.90
14093;DHT22;7123;49.468;10.992;2023-08-17T07:32:22;27.30;99.90
14093;DHT22;7123;49.468;10.992;2023-08-17T07:34:49;27.40;99.90
14093;DHT22;7123;49.468;10.992;2023-08-17T07:37:16;27.40;99.90
14093;DHT22;7123;49.468;10.992;2023-08-17T07:39:42;27.40;99.90
14093;DHT22;7123;49.468;10.992;2023-08-17T07:42:09;27.50;99.90
14093;DHT22;7123;49.468;10.992;2023-08-17T07:44:36;27.50;99.90
14093;DHT22;7123;49.468;10.992;2023-08-17T07:47:05;27.50;99.90
14093;DHT22;7123;49.468;10.992;2023-08-17T07:49:32;27.50;99.90
14093;DHT22;7123;49.468;10.992;2023-08-17T07:51:59;27.60;99.90
14093;DHT22;7123;49.468;10.992;2023-08-17T07:54:26;27.60;99.90
14093;DHT22;7123;49.468;10.992;2023-08-17T07:56:53;27.60;99.90
14093;DHT22;7123;49.468;10.992;2023-08-17T07:59:20;27.60;99.90
14093;DHT22;7123;49.468;10.992;2023-08-17T08:01:46;27.70;99.90
14093;DHT22;7123;49.468;10.992;2023-08-17T08:04:13;27.70;99.90
14093;DHT22;7123;49.468;10.992;2023-08-17T08:06:40;27.70;99.90
14093;DHT22;7123;49.468;10.992;2023-08-17T08:09:07;27.70;99.90
14093;DHT22;7123;49.468;10.992;2023-08-17T08:11:33;27.70;99.90
14093;DHT22;7123;49.468;10.992;2023-08-17T08:14:00;27.70;99.90
14093;DHT22;7123;49.468;10.992;2023-08-17T08:16:28;27.80;99.90
14093;DHT22;7123;49.468;10.992;2023-08-17T08:18:58;27.80;99.90
14093;DHT22;7123;49.468;10.992;2023-08-17T08:21:24;27.80;99.90
14093;DHT22;7123;49.468;10.992;2023-08-17T08:23:53;27.80;99.90
14093;DHT22;7123;49.468;10.992;2023-08-17T08:26:19;27.90;99.90
14093;DHT22;7123;49.468;10.992;2023-08-17T08:28:46;27.80;99.90
14093;DHT22;7123;49.468;10.992;2023-08-17T08:31:13;27.80;99.90
14093;DHT22;7123;49.468;10.992;2023-08-17T08:33:39;27.80;99.90
14093;DHT22;7123;49.468;10.992;2023-08-17T08:36:06;27.80;99.90
14093;DHT22;7123;49.468;10.992;2023-08-17T08:38:33;27.90;99.90
14093;DHT22;7123;49.468;10.992;2023-08-17T08:41:01;27.90;99.90
14093;DHT22;7123;49.468;10.992;2023-08-17T08:43:28;27.90;99.90
14093;DHT22;7123;49.468;10.992;2023-08-17T08:45:57;27.90;99.90
14093;DHT22;7123;49.468;10.992;2023-08-17T08:48:26;27.90;99.90
14093;DHT22;7123;49.468;10.992;2023-08-17T08:50:55;28.00;99.90
14093;DHT22;7123;49.468;10.992;2023-08-17T08:53:45;28.10;99.90
14093;DHT22;7123;49.468;10.992;2023-08-17T08:56:12;28.10;99.90
14093;DHT22;7123;49.468;10.992;2023-08-17T08:58:40;28.10;99.90
14093;DHT22;7123;49.468;10.992;2023-08-17T09:01:10;28.10;99.90
14093;DHT22;7123;49.468;10.992;2023-08-17T09:03:37;28.20;99.90
14093;DHT22;7123;49.468;10.992;2023-08-17T09:06:04;28.20;99.90
14093;DHT22;7123;49.468;10.992;2023-08-17T09:08:32;28.20;99.90
14093;DHT22;7123;49.468;10.992;2023-08-17T09:10:59;28.20;99.90
14093;DHT22;7123;49.468;10.992;2023-08-17T09:13:26;28.20;99.90
14093;DHT22;7123;49.468;10.992;2023-08-17T09:15:53;28.20;99.90
14093;DHT22;7123;49.468;10.992;2023-08-17T09:18:20;28.20;99.90
14093;DHT22;7123;49.468;10.992;2023-08-17T09:20:47;28.30;99.90
14093;DHT22;7123;49.468;10.992;2023-08-17T09:23:20;28.20;99.90
14093;DHT22;7123;49.468;10.992;2023-08-17T09:25:48;28.30;99.90
14093;DHT22;7123;49.468;10.992;2023-08-17T09:28:17;28.30;99.90
14093;DHT22;7123;49.468;10.992;2023-08-17T09:30:57;28.30;99.90
14093;DHT22;7123;49.468;10.992;2023-08-17T09:33:26;28.30;99.90
14093;DHT22;7123;49.468;10.992;2023-08-17T09:35:55;28.40;99.90
14093;DHT22;7123;49.468;10.992;2023-08-17T09:38:26;28.40;99.90
14093;DHT22;7123;49.468;10.992;2023-08-17T09:40:54;28.40;99.90
14093;DHT22;7123;49.468;10.992;2023-08-17T09:43:21;28.50;99.90
14093;DHT22;7123;49.468;10.992;2023-08-17T09:45:49;28.50;99.90
14093;DHT22;7123;49.468;10.992;2023-08-17T09:48:19;28.50;99.90
14093;DHT22;7123;49.468;10.992;2023-08-17T09:50:47;28.60;99.90
14093;DHT22;7123;49.468;10.992;2023-08-17T09:53:16;28.50;99.90
14093;DHT22;7123;49.468;10.992;2023-08-17T09:55:44;28.60;99.90
14093;DHT22;7123;49.468;10.992;2023-08-17T09:58:11;28.60;99.90
14093;DHT22;7123;49.468;10.992;2023-08-17T10:00:46;28.60;99.90
14093;DHT22;7123;49.468;10.992;2023-08-17T10:03:19;28.60;99.90
14093;DHT22;7123;49.468;10.992;2023-08-17T10:05:56;28.70;99.90
14093;DHT22;7123;49.468;10.992;2023-08-17T10:08:25;28.70;99.90
14093;DHT22;7123;49.468;10.992;2023-08-17T10:10:55;28.70;99.90
14093;DHT22;7123;49.468;10.992;2023-08-17T10:13:34;28.80;99.90
14093;DHT22;7123;49.468;10.992;2023-08-17T10:19:05;28.80;99.90
14093;DHT22;7123;49.468;10.992;2023-08-17T10:21:44;28.90;99.90
14093;DHT22;7123;49.468;10.992;2023-08-17T10:24:12;28.90;99.90
14093;DHT22;7123;49.468;10.992;2023-08-17T10:26:40;28.90;99.90
14093;DHT22;7123;49.468;10.992;2023-08-17T10:29:07;28.90;99.90
14093;DHT22;7123;49.468;10.992;2023-08-17T10:31:44;28.90;99.90
14093;DHT22;7123;49.468;10.992;2023-08-17T10:34:13;28.90;99.90
14093;DHT22;7123;49.468;10.992;2023-08-17T10:36:42;28.90;99.90
14093;DHT22;7123;49.468;10.992;2023-08-17T10:39:30;28.90;99.90
14093;DHT22;7123;49.468;10.992;2023-08-17T10:41:58;29.00;99.90
14093;DHT22;7123;49.468;10.992;2023-08-17T10:44:41;29.00;99.90
14093;DHT22;7123;49.468;10.992;2023-08-17T10:49:58;29.00;99.90
14093;DHT22;7123;49.468;10.992;2023-08-17T10:52:30;29.00;99.90
14093;DHT22;7123;49.468;10.992;2023-08-17T10:55:00;29.10;99.90
14093;DHT22;7123;49.468;10.992;2023-08-17T11:00:22;29.10;99.90
14093;DHT22;7123;49.468;10.992;2023-08-17T11:03:00;29.10;99.90
14093;DHT22;7123;49.468;10.992;2023-08-17T11:05:45;29.20;99.90
14093;DHT22;7123;49.468;10.992;2023-08-17T11:11:09;29.20;99.90
14093;DHT22;7123;49.468;10.992;2023-08-17T11:13:41;29.40;99.90
14093;DHT22;7123;49.468;10.992;2023-08-17T11:16:09;29.40;99.90
14093;DHT22;7123;49.468;10.992;2023-08-17T11:18:37;29.40;99.90
14093;DHT22;7123;49.468;10.992;2023-08-17T11:21:05;29.40;99.90
14093;DHT22;7123;49.468;10.992;2023-08-17T11:23:33;29.40;99.90
14093;DHT22;7123;49.468;10.992;2023-08-17T11:26:00;29.40;99.90
14093;DHT22;7123;49.468;10.992;2023-08-17T11:28:30;29.40;99.90
14093;DHT22;7123;49.468;10.992;2023-08-17T11:31:10;29.40;99.90
14093;DHT22;7123;49.468;10.992;2023-08-17T11:33:38;29.50;99.90
14093;DHT22;7123;49.468;10.992;2023-08-17T11:36:07;29.50;99.90
14093;DHT22;7123;49.468;10.992;2023-08-17T11:38:36;29.50;99.90
14093;DHT22;7123;49.468;10.992;2023-08-17T11:41:04;29.60;99.90
14093;DHT22;7123;49.468;10.992;2023-08-17T11:43:32;29.60;99.90
14093;DHT22;7123;49.468;10.992;2023-08-17T11:46:00;29.60;99.90
14093;DHT22;7123;49.468;10.992;2023-08-17T11:48:28;29.60;99.90
14093;DHT22;7123;49.468;10.992;2023-08-17T11:50:55;29.70;99.90
14093;DHT22;7123;49.468;10.992;2023-08-17T11:53:22;29.80;99.90
14093;DHT22;7123;49.468;10.992;2023-08-17T11:55:49;29.80;99.90
14093;DHT22;7123;49.468;10.992;2023-08-17T11:58:57;29.80;99.90
14093;DHT22;7123;49.468;10.992;2023-08-17T12:01:22;29.80;99.90
14093;DHT22;7123;49.468;10.992;2023-08-17T12:03:49;29.80;99.90
14093;DHT22;7123;49.468;10.992;2023-08-17T12:06:16;29.80;99.90
14093;DHT22;7123;49.468;10.992;2023-08-17T12:08:45;29.80;99.90
14093;DHT22;7123;49.468;10.992;2023-08-17T12:11:16;29.70;99.90
14093;DHT22;7123;49.468;10.992;2023-08-17T12:13:49;29.70;99.90
14093;DHT22;7123;49.468;10.992;2023-08-17T12:16:19;29.80;99.90
14093;DHT22;7123;49.468;10.992;2023-08-17T12:18:50;29.90;99.90
14093;DHT22;7123;49.468;10.992;2023-08-17T12:21:23;29.90;99.90
14093;DHT22;7123;49.468;10.992;2023-08-17T12:23:51;29.90;99.90
14093;DHT22;7123;49.468;10.992;2023-08-17T12:26:22;30.00;99.90
14093;DHT22;7123;49.468;10.992;2023-08-17T12:28:49;30.00;99.90
14093;DHT22;7123;49.468;10.992;2023-08-17T12:31:22;30.00;99.90
14093;DHT22;7123;49.468;10.992;2023-08-17T12:33:52;30.00;99.90
14093;DHT22;7123;49.468;10.992;2023-08-17T12:36:19;30.00;99.90
14093;DHT22;7123;49.468;10.992;2023-08-17T12:38:48;30.00;99.90
14093;DHT22;7123;49.468;10.992;2023-08-17T12:41:15;30.20;99.90
14093;DHT22;7123;49.468;10.992;2023-08-17T12:43:43;30.30;99.90
14093;DHT22;7123;49.468;10.992;2023-08-17T12:46:10;30.30;99.90
14093;DHT22;7123;49.468;10.992;2023-08-17T12:48:38;30.30;99.90
14093;DHT22;7123;49.468;10.992;2023-08-17T12:51:05;30.40;99.90
14093;DHT22;7123;49.468;10.992;2023-08-17T12:53:32;30.40;99.90
14093;DHT22;7123;49.468;10.992;2023-08-17T12:55:59;30.40;99.90
14093;DHT22;7123;49.468;10.992;2023-08-17T12:58:27;30.40;99.90
14093;DHT22;7123;49.468;10.992;2023-08-17T13:00:54;30.40;99.90
14093;DHT22;7123;49.468;10.992;2023-08-17T13:03:21;30.50;99.90
14093;DHT22;7123;49.468;10.992;2023-08-17T13:05:49;30.50;99.90
14093;DHT22;7123;49.468;10.992;2023-08-17T13:08:16;30.50;99.90
14093;DHT22;7123;49.468;10.992;2023-08-17T13:10:43;30.60;99.90
14093;DHT22;7123;49.468;10.992;2023-08-17T13:13:10;30.60;99.90
14093;DHT22;7123;49.468;10.992;2023-08-17T13:15:37;30.70;99.90
14093;DHT22;7123;49.468;10.992;2023-08-17T13:18:04;30.80;99.90
14093;DHT22;7123;49.468;10.992;2023-08-17T13:20:31;30.90;99.90
14093;DHT22;7123;49.468;10.992;2023-08-17T13:22:58;31.00;99.90
14093;DHT22;7123;49.468;10.992;2023-08-17T13:25:25;31.10;99.90
14093;DHT22;7123;49.468;10.992;2023-08-17T13:27:52;31.50;99.90
14093;DHT22;7123;49.468;10.992;2023-08-17T13:30:19;31.70;99.90
14093;DHT22;7123;49.468;10.992;2023-08-17T13:32:45;31.70;99.90
14093;DHT22;7123;49.468;10.992;2023-08-17T13:35:14;31.60;99.90
14093;DHT22;7123;49.468;10.992;2023-08-17T13:37:41;31.60;99.90
14093;DHT22;7123;49.468;10.992;2023-08-17T13:40:08;31.60;99.90
14093;DHT22;7123;49.468;10.992;2023-08-17T13:42:35;31.70;99.90
14093;DHT22;7123;49.468;10.992;2023-08-17T13:45:03;32.00;99.90
14093;DHT22;7123;49.468;10.992;2023-08-17T13:47:30;32.00;99.90
14093;DHT22;7123;49.468;10.992;2023-08-17T13:49:57;31.90;99.90
14093;DHT22;7123;49.468;10.992;2023-08-17T13:52:25;31.80;99.90
14093;DHT22;7123;49.468;10.992;2023-08-17T13:54:52;31.80;99.90
14093;DHT22;7123;49.468;10.992;2023-08-17T13:57:19;31.70;99.90
14093;DHT22;7123;49.468;10.992;2023-08-17T13:59:45;31.60;99.90
14093;DHT22;7123;49.468;10.992;2023-08-17T14:02:12;31.70;99.90
14093;DHT22;7123;49.468;10.992;2023-08-17T14:04:39;31.90;99.90
14093;DHT22;7123;49.468;10.992;2023-08-17T14:07:06;32.10;99.90
14093;DHT22;7123;49.468;10.992;2023-08-17T14:09:32;32.10;99.90
14093;DHT22;7123;49.468;10.992;2023-08-17T14:11:59;32.20;99.90
14093;DHT22;7123;49.468;10.992;2023-08-17T14:14:27;32.30;99.90
14093;DHT22;7123;49.468;10.992;2023-08-17T14:16:57;32.40;99.90
14093;DHT22;7123;49.468;10.992;2023-08-17T14:19:24;32.60;99.90
14093;DHT22;7123;49.468;10.992;2023-08-17T14:21:52;32.90;99.90
14093;DHT22;7123;49.468;10.992;2023-08-17T14:24:19;33.00;99.90
14093;DHT22;7123;49.468;10.992;2023-08-17T14:26:46;32.80;99.90
14093;DHT22;7123;49.468;10.992;2023-08-17T14:29:13;32.70;99.90
14093;DHT22;7123;49.468;10.992;2023-08-17T14:31:40;32.40;99.90
14093;DHT22;7123;49.468;10.992;2023-08-17T14:34:07;32.20;99.90
14093;DHT22;7123;49.468;10.992;2023-08-17T14:36:34;32.00;99.90
14093;DHT22;7123;49.468;10.992;2023-08-17T14:39:01;31.80;99.90
14093;DHT22;7123;49.468;10.992;2023-08-17T14:41:27;31.60;99.90
14093;DHT22;7123;49.468;10.992;2023-08-17T14:43:59;31.60;99.90
14093;DHT22;7123;49.468;10.992;2023-08-17T14:46:29;31.50;99.90
14093;DHT22;7123;49.468;10.992;2023-08-17T14:48:57;31.50;99.90
14093;DHT22;7123;49.468;10.992;2023-08-17T14:51:24;31.40;99.90
14093;DHT22;7123;49.468;10.992;2023-08-17T14:53:57;31.40;99.90
14093;DHT22;7123;49.468;10.992;2023-08-17T14:56:23;31.30;99.90
14093;DHT22;7123;49.468;10.992;2023-08-17T14:58:50;31.30;99.90
14093;DHT22;7123;49.468;10.992;2023-08-17T15:01:17;31.20;99.90
14093;DHT22;7123;49.468;10.992;2023-08-17T15:03:44;31.10;99.90
14093;DHT22;7123;49.468;10.992;2023-08-17T15:06:11;31.10;99.90
14093;DHT22;7123;49.468;10.992;2023-08-17T15:08:58;31.00;99.90
14093;DHT22;7123;49.468;10.992;2023-08-17T15:11:25;30.90;99.90
14093;DHT22;7123;49.468;10.992;2023-08-17T15:13:51;30.80;99.90
14093;DHT22;7123;49.468;10.992;2023-08-17T15:16:18;30.90;99.90
14093;DHT22;7123;49.468;10.992;2023-08-17T15:18:51;30.90;99.90
14093;DHT22;7123;49.468;10.992;2023-08-17T15:21:18;31.00;99.90
14093;DHT22;7123;49.468;10.992;2023-08-17T15:23:45;30.90;99.90
14093;DHT22;7123;49.468;10.992;2023-08-17T15:26:12;30.80;99.90
14093;DHT22;7123;49.468;10.992;2023-08-17T15:28:40;30.80;99.90
14093;DHT22;7123;49.468;10.992;2023-08-17T15:31:07;30.70;99.90
14093;DHT22;7123;49.468;10.992;2023-08-17T15:33:40;30.60;99.90
14093;DHT22;7123;49.468;10.992;2023-08-17T15:36:07;30.50;99.90
14093;DHT22;7123;49.468;10.992;2023-08-17T15:38:34;30.40;99.90
14093;DHT22;7123;49.468;10.992;2023-08-17T15:41:01;30.30;99.90
14093;DHT22;7123;49.468;10.992;2023-08-17T15:43:30;30.10;99.90
14093;DHT22;7123;49.468;10.992;2023-08-17T15:45:58;29.60;99.90
14093;DHT22;7123;49.468;10.992;2023-08-17T15:49:02;28.30;99.90
14093;DHT22;7123;49.468;10.992;2023-08-17T15:51:32;27.80;99.90